Time;durP1;ratioP1;P1;durP2;ratioP2;P2;SDS_P1;SDS_P2;PMS_P1;PMS_P2;Temp;Humidity;BMP_temperature;BMP_pressure;BME280_temperature;BME280_humidity;BME280_pressure;Samples;Min_cycle;Max_cycle;Signal;HPM_P1;HPM_P2
2022/05/16 00:01:56;;;;;;;6.55;5.68;;;;;;;;;;5045257;28;20175;-68
2022/05/16 00:04:22;;;;;;;9.38;5.82;;;;;;;;;;5046717;28;20048;-68
2022/05/16 00:06:48;;;;;;;6.85;5.80;;;;;;;;;;5044192;28;20041;-68
2022/05/16 00:09:14;;;;;;;6.57;5.97;;;;;;;;;;5035408;28;20663;-68
2022/05/16 00:11:40;;;;;;;6.43;5.85;;;;;;;;;;5044460;28;20039;-68
2022/05/16 00:14:07;;;;;;;9.02;6.10;;;;;;;;;;5046118;28;20152;-68
2022/05/16 00:16:33;;;;;;;6.32;5.82;;;;;;;;;;5043724;28;20484;-68
2022/05/16 00:18:59;;;;;;;6.30;5.70;;;;;;;;;;5044623;28;20045;-68
2022/05/16 00:21:25;;;;;;;6.78;6.05;;;;;;;;;;5046901;28;20033;-67
2022/05/16 00:23:51;;;;;;;5.90;5.50;;;;;;;;;;5043982;28;20040;-67
2022/05/16 00:26:17;;;;;;;6.47;5.88;;;;;;;;;;5039077;28;20052;-68
2022/05/16 00:28:42;;;;;;;6.25;5.70;;;;;;;;;;5042210;28;20041;-68
2022/05/16 00:31:08;;;;;;;6.97;5.72;;;;;;;;;;5051069;28;20040;-68
2022/05/16 00:33:34;;;;;;;6.93;5.65;;;;;;;;;;5046910;28;20156;-68
2022/05/16 00:35:59;;;;;;;6.18;5.60;;;;;;;;;;5044483;28;20107;-68
2022/05/16 00:38:25;;;;;;;6.57;6.03;;;;;;;;;;5044575;28;20071;-68
2022/05/16 00:40:52;;;;;;;12.60;5.72;;;;;;;;;;5050658;28;20110;-67
2022/05/16 00:43:58;;;;;;;7.75;6.00;;;;;;;;;;5047788;28;20044;-68
2022/05/16 00:46:27;;;;;;;8.38;5.93;;;;;;;;;;5040019;28;20041;-68
2022/05/16 00:48:53;;;;;;;10.95;5.70;;;;;;;;;;5050598;28;20036;-68
2022/05/16 00:51:23;;;;;;;7.47;5.80;;;;;;;;;;5050218;28;20033;-68
2022/05/16 00:53:53;;;;;;;6.40;5.90;;;;;;;;;;5043548;28;20029;-68
2022/05/16 00:56:19;;;;;;;6.35;5.85;;;;;;;;;;5047280;28;20450;-68
2022/05/16 00:58:46;;;;;;;5.70;5.30;;;;;;;;;;5050538;28;20090;-68
2022/05/16 01:06:41;;;;;;;6.93;6.38;;;;;;;;;;5049441;28;20044;-69
2022/05/16 01:09:07;;;;;;;6.45;5.82;;;;;;;;;;5050354;28;20040;-68
2022/05/16 01:11:36;;;;;;;6.47;5.90;;;;;;;;;;5050327;28;20039;-68
2022/05/16 01:14:02;;;;;;;6.47;5.90;;;;;;;;;;5041802;28;20029;-68
2022/05/16 01:16:28;;;;;;;6.10;5.60;;;;;;;;;;5044582;28;20153;-68
2022/05/16 01:18:54;;;;;;;5.88;5.40;;;;;;;;;;5048145;28;20120;-68
2022/05/16 01:21:38;;;;;;;6.57;5.47;;;;;;;;;;5055138;28;20090;-68
2022/05/16 01:24:10;;;;;;;6.20;5.70;;;;;;;;;;5042945;28;20064;-68
2022/05/16 01:26:37;;;;;;;6.05;5.63;;;;;;;;;;5051047;28;20033;-68
2022/05/16 01:29:04;;;;;;;6.75;6.00;;;;;;;;;;5049982;28;20112;-68
2022/05/16 01:31:31;;;;;;;6.70;5.88;;;;;;;;;;5045199;28;20029;-68
2022/05/16 01:33:57;;;;;;;8.18;6.10;;;;;;;;;;5045236;28;20036;-68
2022/05/16 01:36:23;;;;;;;5.88;5.40;;;;;;;;;;5049603;28;20037;-68
2022/05/16 01:38:49;;;;;;;7.40;6.25;;;;;;;;;;5049817;28;20438;-68
2022/05/16 01:41:20;;;;;;;6.72;6.13;;;;;;;;;;5036406;28;20047;-68
2022/05/16 01:43:49;;;;;;;6.35;5.85;;;;;;;;;;5046630;28;20094;-69
2022/05/16 01:46:19;;;;;;;6.88;6.20;;;;;;;;;;5049382;28;20041;-68
2022/05/16 01:48:45;;;;;;;10.27;6.15;;;;;;;;;;5045579;28;20049;-68
2022/05/16 01:51:12;;;;;;;6.63;6.03;;;;;;;;;;5040001;28;20534;-67
2022/05/16 01:53:39;;;;;;;6.60;6.00;;;;;;;;;;5045908;28;20086;-67
2022/05/16 01:56:05;;;;;;;6.38;5.85;;;;;;;;;;5051971;28;20123;-67
2022/05/16 01:58:31;;;;;;;8.15;5.85;;;;;;;;;;5044799;28;20112;-68
2022/05/16 02:00:57;;;;;;;6.65;6.10;;;;;;;;;;5041134;28;20648;-67
2022/05/16 02:03:23;;;;;;;7.88;6.03;;;;;;;;;;5049248;28;20321;-67
2022/05/16 02:05:49;;;;;;;6.47;5.97;;;;;;;;;;5049176;28;20043;-68
2022/05/16 02:08:16;;;;;;;7.55;6.00;;;;;;;;;;5045490;28;20029;-68
2022/05/16 02:10:43;;;;;;;6.50;5.90;;;;;;;;;;5039973;28;20567;-68
2022/05/16 02:13:09;;;;;;;6.25;5.75;;;;;;;;;;5048816;28;20041;-68
2022/05/16 02:15:37;;;;;;;6.35;5.75;;;;;;;;;;5048845;28;20040;-67
2022/05/16 02:18:04;;;;;;;6.32;5.72;;;;;;;;;;5041377;28;20025;-67
2022/05/16 02:20:30;;;;;;;6.40;5.90;;;;;;;;;;5043603;28;20099;-68
2022/05/16 02:25:46;;;;;;;7.43;5.93;;;;;;;;;;5042854;28;20032;-68
2022/05/16 02:28:14;;;;;;;6.40;5.80;;;;;;;;;;5037925;28;20029;-68
2022/05/16 02:30:42;;;;;;;8.20;6.25;;;;;;;;;;5050559;28;20036;-68
2022/05/16 02:33:10;;;;;;;6.60;6.00;;;;;;;;;;5048436;28;20641;-68
2022/05/16 02:35:35;;;;;;;8.27;6.35;;;;;;;;;;5033277;28;20060;-68
2022/05/16 02:38:02;;;;;;;7.00;6.40;;;;;;;;;;5039287;28;20065;-68
2022/05/16 02:40:30;;;;;;;6.32;5.82;;;;;;;;;;5057975;28;20039;-68
2022/05/16 02:42:56;;;;;;;6.47;5.97;;;;;;;;;;5047957;28;20744;-68
2022/05/16 02:45:24;;;;;;;7.07;5.90;;;;;;;;;;5045891;28;20044;-68
2022/05/16 02:47:49;;;;;;;6.70;6.05;;;;;;;;;;5041950;28;20070;-68
2022/05/16 02:50:16;;;;;;;6.25;5.75;;;;;;;;;;5041544;28;20063;-68
2022/05/16 02:52:42;;;;;;;6.60;6.00;;;;;;;;;;5046915;28;20033;-68
2022/05/16 02:55:08;;;;;;;7.00;6.30;;;;;;;;;;5037938;28;20459;-68
2022/05/16 02:57:34;;;;;;;6.68;5.97;;;;;;;;;;5042225;28;20040;-68
2022/05/16 02:59:59;;;;;;;6.43;5.93;;;;;;;;;;5047540;28;20500;-68
2022/05/16 03:02:26;;;;;;;6.50;6.00;;;;;;;;;;5043962;28;20036;-68
2022/05/16 03:04:52;;;;;;;6.45;5.85;;;;;;;;;;5037158;28;20037;-68
2022/05/16 03:07:18;;;;;;;6.30;5.80;;;;;;;;;;5047903;28;20043;-68
2022/05/16 03:09:44;;;;;;;6.53;5.90;;;;;;;;;;5048247;28;20033;-68
2022/05/16 03:12:10;;;;;;;6.80;6.10;;;;;;;;;;5048314;28;20029;-68
2022/05/16 03:14:36;;;;;;;6.63;6.03;;;;;;;;;;5035853;28;20090;-68
2022/05/16 03:17:03;;;;;;;6.65;6.05;;;;;;;;;;5046372;28;20384;-68
2022/05/16 03:19:30;;;;;;;6.65;6.05;;;;;;;;;;5047333;28;20031;-68
2022/05/16 03:21:56;;;;;;;7.07;6.38;;;;;;;;;;5047977;28;20120;-68
2022/05/16 03:24:22;;;;;;;6.55;6.05;;;;;;;;;;5038138;28;20767;-68
2022/05/16 03:26:47;;;;;;;9.13;6.13;;;;;;;;;;5043404;28;20120;-68
2022/05/16 03:29:14;;;;;;;7.20;5.93;;;;;;;;;;5048091;28;20128;-67
2022/05/16 03:31:43;;;;;;;7.03;6.40;;;;;;;;;;5041375;28;20049;-67
2022/05/16 03:34:10;;;;;;;6.75;6.15;;;;;;;;;;5041642;28;20107;-67
2022/05/16 03:36:36;;;;;;;6.57;6.07;;;;;;;;;;5058525;22;20045;-63
2022/05/16 03:41:48;;;;;;;6.53;6.03;;;;;;;;;;5039820;28;20112;-63
2022/05/16 03:44:13;;;;;;;6.50;6.00;;;;;;;;;;5026407;28;20124;-63
2022/05/16 03:46:39;;;;;;;6.60;6.00;;;;;;;;;;5047576;28;20451;-63
2022/05/16 03:49:05;;;;;;;6.90;5.97;;;;;;;;;;5039411;28;20033;-63
2022/05/16 03:51:30;;;;;;;7.70;6.28;;;;;;;;;;5028064;28;20047;-63
2022/05/16 03:53:56;;;;;;;6.28;5.60;;;;;;;;;;5039640;28;20108;-63
2022/05/16 03:56:25;;;;;;;7.50;6.22;;;;;;;;;;5030022;28;20029;-63
2022/05/16 03:58:51;;;;;;;6.28;5.78;;;;;;;;;;5028743;28;20065;-63
2022/05/16 04:01:17;;;;;;;6.95;6.28;;;;;;;;;;5028756;28;20043;-63
2022/05/16 04:03:44;;;;;;;6.40;5.65;;;;;;;;;;5027360;28;20117;-63
2022/05/16 04:06:09;;;;;;;7.53;5.90;;;;;;;;;;5032251;28;20042;-63
2022/05/16 04:08:35;;;;;;;7.40;6.50;;;;;;;;;;5032878;28;20102;-63
2022/05/16 04:11:02;;;;;;;6.75;6.22;;;;;;;;;;5034551;28;20060;-63
2022/05/16 04:13:27;;;;;;;7.45;6.20;;;;;;;;;;5031834;28;20484;-63
2022/05/16 04:15:54;;;;;;;6.50;5.90;;;;;;;;;;5031538;28;20051;-63
2022/05/16 04:18:19;;;;;;;6.30;5.80;;;;;;;;;;5034737;28;20045;-63
2022/05/16 04:20:46;;;;;;;6.63;5.93;;;;;;;;;;5032056;28;20113;-63
2022/05/16 04:23:12;;;;;;;7.65;6.38;;;;;;;;;;5035032;28;20072;-63
2022/05/16 04:25:37;;;;;;;7.32;6.40;;;;;;;;;;5037900;28;20438;-63
2022/05/16 04:28:07;;;;;;;6.93;6.43;;;;;;;;;;5031478;28;20033;-63
2022/05/16 04:30:34;;;;;;;7.00;6.30;;;;;;;;;;5031932;28;20503;-63
2022/05/16 04:33:00;;;;;;;6.75;6.15;;;;;;;;;;5030886;28;20036;-64
2022/05/16 04:35:26;;;;;;;8.65;6.68;;;;;;;;;;5033994;28;20104;-65
2022/05/16 04:37:52;;;;;;;6.57;5.90;;;;;;;;;;5031661;28;20041;-63
2022/05/16 04:40:19;;;;;;;6.55;6.05;;;;;;;;;;5031220;28;20163;-63
2022/05/16 04:42:45;;;;;;;8.30;6.15;;;;;;;;;;5031688;28;20041;-63
2022/05/16 04:45:15;;;;;;;6.25;5.57;;;;;;;;;;5030753;28;20049;-63
2022/05/16 04:47:43;;;;;;;6.40;5.80;;;;;;;;;;5040503;28;20552;-63
2022/05/16 04:50:10;;;;;;;6.55;6.05;;;;;;;;;;5040992;28;20036;-63
2022/05/16 04:52:35;;;;;;;7.25;6.55;;;;;;;;;;5033215;28;20041;-63
2022/05/16 04:55:02;;;;;;;10.68;6.70;;;;;;;;;;5043261;28;20059;-63
2022/05/16 04:57:28;;;;;;;6.90;6.30;;;;;;;;;;5034486;28;20084;-63
2022/05/16 04:59:53;;;;;;;7.13;6.57;;;;;;;;;;5036988;28;20033;-63
2022/05/16 05:02:19;;;;;;;8.07;6.55;;;;;;;;;;5031124;28;20088;-63
2022/05/16 05:04:45;;;;;;;7.22;6.22;;;;;;;;;;5030926;28;20028;-63
2022/05/16 05:07:12;;;;;;;7.38;6.75;;;;;;;;;;5038028;28;20119;-63
2022/05/16 05:15:11;;;;;;;7.82;6.80;;;;;;;;;;5029594;28;20481;-64
2022/05/16 05:17:37;;;;;;;7.50;6.80;;;;;;;;;;5031042;28;20112;-64
2022/05/16 05:20:04;;;;;;;7.40;6.80;;;;;;;;;;5031761;28;20111;-63
2022/05/16 05:22:29;;;;;;;6.88;6.32;;;;;;;;;;5033501;28;20045;-63
2022/05/16 05:24:55;;;;;;;10.35;7.05;;;;;;;;;;5040962;28;20034;-66
2022/05/16 05:27:21;;;;;;;7.75;6.90;;;;;;;;;;5036093;28;20116;-63
2022/05/16 05:29:48;;;;;;;7.40;6.70;;;;;;;;;;5034091;28;20037;-63
2022/05/16 05:32:15;;;;;;;7.20;6.53;;;;;;;;;;5031351;28;20065;-63
2022/05/16 05:34:41;;;;;;;7.30;6.60;;;;;;;;;;5029282;28;20036;-64
2022/05/16 05:37:07;;;;;;;7.80;7.00;;;;;;;;;;5029990;28;20029;-64
2022/05/16 05:39:34;;;;;;;7.45;6.68;;;;;;;;;;5032497;28;20064;-64
2022/05/16 05:41:59;;;;;;;7.13;6.53;;;;;;;;;;5029313;28;20041;-63
2022/05/16 05:44:25;;;;;;;7.90;6.70;;;;;;;;;;5034139;28;20044;-66
2022/05/16 05:46:51;;;;;;;6.85;6.30;;;;;;;;;;5036782;28;20039;-63
2022/05/16 05:49:17;;;;;;;7.55;6.85;;;;;;;;;;5030169;28;20160;-63
2022/05/16 05:51:43;;;;;;;7.20;6.50;;;;;;;;;;5030167;28;20037;-63
2022/05/16 05:54:09;;;;;;;7.93;7.07;;;;;;;;;;5031765;28;20037;-63
2022/05/16 05:56:35;;;;;;;7.57;6.93;;;;;;;;;;5031331;28;20084;-63
2022/05/16 05:59:01;;;;;;;10.68;7.13;;;;;;;;;;5029667;28;20116;-63
2022/05/16 06:01:26;;;;;;;7.60;6.90;;;;;;;;;;5029909;28;20059;-63
2022/05/16 06:03:53;;;;;;;8.82;6.57;;;;;;;;;;5028457;28;20037;-63
2022/05/16 06:06:19;;;;;;;7.30;6.60;;;;;;;;;;5031340;28;20104;-66
2022/05/16 06:08:45;;;;;;;8.23;7.50;;;;;;;;;;5044214;28;20055;-66
2022/05/16 06:11:10;;;;;;;7.72;6.80;;;;;;;;;;5048119;28;20439;-65
2022/05/16 06:13:37;;;;;;;7.40;6.70;;;;;;;;;;5035952;28;20056;-64
2022/05/16 06:16:03;;;;;;;7.43;6.75;;;;;;;;;;5035060;28;20065;-63
2022/05/16 06:18:28;;;;;;;7.43;6.72;;;;;;;;;;5029641;28;20092;-63
2022/05/16 06:20:54;;;;;;;7.72;7.10;;;;;;;;;;5033335;28;20060;-63
2022/05/16 06:23:19;;;;;;;7.75;6.97;;;;;;;;;;5028482;28;20041;-63
2022/05/16 06:25:45;;;;;;;7.68;6.90;;;;;;;;;;5037459;28;20396;-66
2022/05/16 06:28:14;;;;;;;9.18;7.25;;;;;;;;;;5031061;28;20042;-63
2022/05/16 06:30:41;;;;;;;;;;;;;;;;;;5034593;28;20060;-63
2022/05/16 06:33:07;;;;;;;7.45;6.85;;;;;;;;;;5028486;28;20008;-63
2022/05/16 06:35:34;;;;;;;7.75;7.00;;;;;;;;;;5028791;28;20205;-63
2022/05/16 06:38:22;;;;;;;7.78;7.07;;;;;;;;;;5030368;28;20029;-64
2022/05/16 06:40:48;;;;;;;7.80;7.00;;;;;;;;;;5032863;28;20029;-63
2022/05/16 06:43:18;;;;;;;8.00;7.30;;;;;;;;;;5028244;28;20174;-63
2022/05/16 06:45:44;;;;;;;7.40;6.78;;;;;;;;;;5028799;28;20033;-63
2022/05/16 06:48:10;;;;;;;7.55;6.90;;;;;;;;;;5031028;28;20032;-63
2022/05/16 06:50:37;;;;;;;8.20;7.40;;;;;;;;;;5028047;28;20056;-63
2022/05/16 06:53:03;;;;;;;8.30;7.50;;;;;;;;;;5031416;28;20068;-63
2022/05/16 06:55:30;;;;;;;11.20;7.70;;;;;;;;;;5033921;28;20036;-63
2022/05/16 06:57:56;;;;;;;7.43;6.75;;;;;;;;;;5035600;28;20336;-63
2022/05/16 07:00:22;;;;;;;8.10;7.30;;;;;;;;;;5030292;28;20037;-63
2022/05/16 07:02:48;;;;;;;7.80;7.10;;;;;;;;;;5032546;28;20116;-64
2022/05/16 07:05:15;;;;;;;8.15;7.45;;;;;;;;;;5033909;28;20091;-63
2022/05/16 07:07:40;;;;;;;8.68;7.35;;;;;;;;;;5042063;28;20033;-63
2022/05/16 07:10:07;;;;;;;9.43;7.45;;;;;;;;;;5039693;28;20112;-63
2022/05/16 07:12:33;;;;;;;8.05;7.22;;;;;;;;;;5040475;28;20112;-63
2022/05/16 07:14:59;;;;;;;7.90;7.30;;;;;;;;;;5047413;28;20120;-64
2022/05/16 07:17:24;;;;;;;9.00;7.15;;;;;;;;;;5033082;28;20061;-63
2022/05/16 07:19:51;;;;;;;7.65;6.80;;;;;;;;;;5027737;28;20530;-63
2022/05/16 07:22:22;;;;;;;9.50;6.80;;;;;;;;;;5028502;28;20392;-64
2022/05/16 07:24:49;;;;;;;9.30;6.65;;;;;;;;;;5034658;28;20341;-63
2022/05/16 07:29:59;;;;;;;8.88;7.00;;;;;;;;;;5028560;28;20033;-63
2022/05/16 07:32:55;;;;;;;7.63;6.95;;;;;;;;;;5030718;28;20447;-64
2022/05/16 07:35:26;;;;;;;11.70;6.75;;;;;;;;;;5030614;28;20077;-63
2022/05/16 07:37:56;;;;;;;8.88;7.13;;;;;;;;;;5045002;28;20363;-63
2022/05/16 07:40:25;;;;;;;7.82;6.60;;;;;;;;;;5048795;28;20065;-63
2022/05/16 07:42:54;;;;;;;10.98;7.20;;;;;;;;;;5037192;28;20048;-63
2022/05/16 07:45:21;;;;;;;9.85;7.45;;;;;;;;;;5045425;28;20469;-64
2022/05/16 07:47:47;;;;;;;12.65;6.63;;;;;;;;;;5048596;28;20526;-63
2022/05/16 07:50:14;;;;;;;11.18;7.15;;;;;;;;;;5048757;28;20169;-63
2022/05/16 07:52:45;;;;;;;9.80;7.15;;;;;;;;;;5044224;28;20045;-64
2022/05/16 07:55:11;;;;;;;11.70;7.45;;;;;;;;;;5039924;28;20122;-64
2022/05/16 07:57:36;;;;;;;12.98;7.03;;;;;;;;;;5044698;28;20032;-64
2022/05/16 08:00:03;;;;;;;9.48;6.63;;;;;;;;;;5039272;28;20417;-64
2022/05/16 08:02:39;;;;;;;9.95;7.43;;;;;;;;;;5044309;28;20535;-64
2022/05/16 08:05:07;;;;;;;8.32;6.63;;;;;;;;;;5039978;28;20112;-64
2022/05/16 08:07:32;;;;;;;8.30;6.45;;;;;;;;;;5036653;28;20041;-64
2022/05/16 08:12:42;;;;;;;13.07;6.80;;;;;;;;;;5039290;28;20415;-64
2022/05/16 08:15:08;;;;;;;7.78;6.57;;;;;;;;;;5033457;28;20033;-64
2022/05/16 08:17:33;;;;;;;7.63;6.85;;;;;;;;;;5036005;28;20036;-64
2022/05/16 08:20:00;;;;;;;11.27;7.30;;;;;;;;;;5031529;28;20033;-64
2022/05/16 08:22:31;;;;;;;9.68;6.88;;;;;;;;;;5031566;28;20168;-64
2022/05/16 08:24:57;;;;;;;7.93;7.00;;;;;;;;;;5039109;28;20044;-64
2022/05/16 08:27:24;;;;;;;7.80;7.10;;;;;;;;;;5041025;28;20039;-64
2022/05/16 08:29:49;;;;;;;7.95;7.13;;;;;;;;;;5036410;28;20400;-64
2022/05/16 08:32:16;;;;;;;7.78;6.95;;;;;;;;;;5034050;28;20032;-64
2022/05/16 08:34:43;;;;;;;13.80;7.05;;;;;;;;;;5038915;28;20029;-64
2022/05/16 08:39:52;;;;;;;13.55;7.03;;;;;;;;;;5045610;28;20029;-64
2022/05/16 08:42:40;;;;;;;8.40;6.93;;;;;;;;;;5030370;28;20377;-64
2022/05/16 08:45:31;;;;;;;9.00;7.05;;;;;;;;;;5044784;28;20044;-64
2022/05/16 08:48:06;;;;;;;11.43;7.20;;;;;;;;;;5049979;28;20121;-64
2022/05/16 08:50:44;;;;;;;9.25;7.28;;;;;;;;;;5031099;28;20096;-64
2022/05/16 08:53:23;;;;;;;8.18;7.40;;;;;;;;;;5039731;28;20033;-63
2022/05/16 08:55:52;;;;;;;12.07;9.10;;;;;;;;;;5035901;28;20034;-64
2022/05/16 08:58:21;;;;;;;;;;;;;;;;;;5039633;28;20484;-64
2022/05/16 09:00:47;;;;;;;9.30;7.10;;;;;;;;;;5030893;28;20007;-64
2022/05/16 09:03:17;;;;;;;10.68;7.78;;;;;;;;;;5037616;28;20360;-64
2022/05/16 09:05:48;;;;;;;11.10;7.53;;;;;;;;;;5041660;28;20049;-64
2022/05/16 09:08:27;;;;;;;9.88;7.20;;;;;;;;;;5041789;28;20472;-64
2022/05/16 09:11:01;;;;;;;6.95;6.25;;;;;;;;;;5038822;28;20052;-64
2022/05/16 09:13:42;;;;;;;7.50;6.80;;;;;;;;;;5041426;28;20041;-64
2022/05/16 09:16:16;;;;;;;9.93;6.18;;;;;;;;;;5038737;28;20064;-64
2022/05/16 09:18:48;;;;;;;9.43;6.20;;;;;;;;;;5030503;28;20044;-64
2022/05/16 09:21:44;;;;;;;9.15;6.15;;;;;;;;;;5030274;28;20073;-64
2022/05/16 09:24:12;;;;;;;8.88;7.53;;;;;;;;;;5035280;28;20453;-64
2022/05/16 09:27:06;;;;;;;9.98;7.25;;;;;;;;;;5030416;28;20040;-65
2022/05/16 09:29:39;;;;;;;9.23;6.63;;;;;;;;;;5044288;28;20320;-64
2022/05/16 09:32:35;;;;;;;8.23;6.57;;;;;;;;;;5047087;28;20037;-64
2022/05/16 09:35:01;;;;;;;7.15;6.47;;;;;;;;;;5035489;28;20025;-64
2022/05/16 09:37:28;;;;;;;11.50;7.03;;;;;;;;;;5062970;22;20049;-70
2022/05/16 09:39:54;;;;;;;8.02;6.60;;;;;;;;;;5049952;28;20095;-70
2022/05/16 09:42:23;;;;;;;7.85;6.82;;;;;;;;;;5044290;28;20063;-70
2022/05/16 09:45:02;;;;;;;8.63;6.30;;;;;;;;;;5048577;28;20435;-70
2022/05/16 09:47:28;;;;;;;6.70;6.07;;;;;;;;;;5043093;28;20214;-70
2022/05/16 09:50:03;;;;;;;6.95;6.25;;;;;;;;;;5047409;28;20448;-71
2022/05/16 09:52:31;;;;;;;8.20;5.93;;;;;;;;;;5046522;28;20029;-71
2022/05/16 09:55:05;;;;;;;;;;;;;;;;;;5050538;28;20479;-71
2022/05/16 09:57:39;;;;;;;8.02;5.30;;;;;;;;;;5044692;28;20434;-71
2022/05/16 10:00:19;;;;;;;9.75;5.60;;;;;;;;;;5040203;28;20036;-70
2022/05/16 10:03:01;;;;;;;7.80;6.18;;;;;;;;;;5047591;28;20083;-71
2022/05/16 10:05:34;;;;;;;6.65;5.82;;;;;;;;;;5047193;28;20317;-70
2022/05/16 10:08:14;;;;;;;10.10;5.88;;;;;;;;;;5051639;28;20060;-70
2022/05/16 10:10:42;;;;;;;6.53;5.70;;;;;;;;;;5046345;28;20399;-70
2022/05/16 10:13:07;;;;;;;8.35;6.18;;;;;;;;;;5048055;28;20120;-70
2022/05/16 10:15:36;;;;;;;6.93;5.80;;;;;;;;;;5048990;28;20449;-70
2022/05/16 10:18:07;;;;;;;11.00;6.22;;;;;;;;;;5048237;28;20397;-70
2022/05/16 10:20:42;;;;;;;6.38;5.35;;;;;;;;;;5048681;28;20032;-70
2022/05/16 10:23:13;;;;;;;7.78;6.10;;;;;;;;;;5042120;28;20170;-70
2022/05/16 10:25:43;;;;;;;7.15;6.43;;;;;;;;;;5050475;28;20065;-70
2022/05/16 10:28:17;;;;;;;7.78;6.40;;;;;;;;;;5041983;28;20037;-70
2022/05/16 10:33:34;;;;;;;8.35;6.72;;;;;;;;;;5043888;28;20400;-70
2022/05/16 10:36:05;;;;;;;8.15;6.60;;;;;;;;;;5046085;28;20036;-69
2022/05/16 10:38:46;;;;;;;6.70;6.10;;;;;;;;;;5045714;28;20032;-70
2022/05/16 10:41:21;;;;;;;10.38;7.03;;;;;;;;;;5048590;28;20112;-70
2022/05/16 10:44:31;;;;;;;7.65;6.45;;;;;;;;;;5047905;28;20048;-70
2022/05/16 10:47:15;;;;;;;9.73;6.70;;;;;;;;;;5043212;28;20045;-71
2022/05/16 10:50:06;;;;;;;8.57;6.15;;;;;;;;;;5044532;28;20051;-70
2022/05/16 10:52:43;;;;;;;8.00;6.15;;;;;;;;;;5046023;28;20875;-70
2022/05/16 10:55:09;;;;;;;8.85;6.40;;;;;;;;;;5041046;28;20060;-69
2022/05/16 10:57:53;;;;;;;8.27;6.72;;;;;;;;;;5044323;28;20531;-70
2022/05/16 11:00:21;;;;;;;7.85;7.05;;;;;;;;;;5045995;28;20047;-70
2022/05/16 11:03:08;;;;;;;10.30;6.57;;;;;;;;;;5040872;28;20033;-70
2022/05/16 11:05:39;;;;;;;9.07;6.38;;;;;;;;;;5036079;28;20115;-69
2022/05/16 11:08:27;;;;;;;7.65;6.68;;;;;;;;;;5046104;28;20149;-70
2022/05/16 11:10:58;;;;;;;8.15;7.20;;;;;;;;;;5043142;28;20452;-70
2022/05/16 11:13:50;;;;;;;8.30;6.93;;;;;;;;;;5033753;28;20067;-70
2022/05/16 11:16:26;;;;;;;7.57;6.88;;;;;;;;;;5045833;28;20523;-70
2022/05/16 11:19:13;;;;;;;10.82;6.90;;;;;;;;;;5046004;28;20056;-70
2022/05/16 11:21:58;;;;;;;9.10;7.40;;;;;;;;;;5039384;28;20377;-70
2022/05/16 11:24:24;;;;;;;9.18;6.43;;;;;;;;;;5056715;28;20075;-70
2022/05/16 11:26:57;;;;;;;7.70;6.47;;;;;;;;;;5049012;28;20040;-70
2022/05/16 11:29:28;;;;;;;8.40;6.68;;;;;;;;;;5040383;28;20041;-70
2022/05/16 11:32:07;;;;;;;9.50;6.45;;;;;;;;;;5040016;28;20441;-70
2022/05/16 11:34:43;;;;;;;7.43;6.47;;;;;;;;;;5045679;28;20064;-70
2022/05/16 11:37:34;;;;;;;12.32;7.05;;;;;;;;;;5046320;28;20048;-69
2022/05/16 11:40:06;;;;;;;9.23;6.40;;;;;;;;;;5036273;28;20464;-70
2022/05/16 11:42:46;;;;;;;7.50;5.82;;;;;;;;;;5034281;28;20400;-70
2022/05/16 11:45:48;;;;;;;9.77;6.57;;;;;;;;;;5045941;28;20368;-70
2022/05/16 11:48:26;;;;;;;14.43;5.93;;;;;;;;;;5040184;28;20029;-70
2022/05/16 11:51:14;;;;;;;8.95;5.90;;;;;;;;;;5045715;28;20320;-70
2022/05/16 11:53:48;;;;;;;9.02;5.72;;;;;;;;;;5046427;28;20110;-70
2022/05/16 12:02:15;;;;;;;9.07;5.40;;;;;;;;;;5045451;28;20030;-71
2022/05/16 12:04:47;;;;;;;6.13;5.53;;;;;;;;;;5041042;28;20080;-71
2022/05/16 12:07:31;;;;;;;6.68;5.25;;;;;;;;;;5047394;28;20047;-71
2022/05/16 12:10:22;;;;;;;7.15;5.15;;;;;;;;;;5045603;28;21068;-70
2022/05/16 12:13:18;;;;;;;8.68;5.97;;;;;;;;;;5044928;28;20021;-71
2022/05/16 12:16:14;;;;;;;6.38;5.40;;;;;;;;;;5049070;28;20072;-71
2022/05/16 12:18:48;;;;;;;7.50;5.80;;;;;;;;;;5039063;28;20045;-71
2022/05/16 12:21:22;;;;;;;8.10;5.70;;;;;;;;;;5038252;28;20037;-71
2022/05/16 12:23:48;;;;;;;9.30;6.45;;;;;;;;;;5043230;28;20037;-71
2022/05/16 12:26:26;;;;;;;8.07;6.30;;;;;;;;;;5050526;28;20400;-70
2022/05/16 12:29:10;;;;;;;11.82;6.30;;;;;;;;;;5049233;28;20053;-70
2022/05/16 12:31:44;;;;;;;10.18;5.93;;;;;;;;;;5038735;28;20111;-71
2022/05/16 12:34:11;;;;;;;10.23;6.35;;;;;;;;;;5044965;28;20040;-70
2022/05/16 12:36:37;;;;;;;9.73;6.55;;;;;;;;;;5048571;28;20431;-70
2022/05/16 12:39:08;;;;;;;7.85;6.20;;;;;;;;;;5046305;28;20075;-70
2022/05/16 12:41:39;;;;;;;7.10;6.20;;;;;;;;;;5042540;28;20116;-70
2022/05/16 12:44:23;;;;;;;6.85;6.15;;;;;;;;;;5048622;28;20119;-70
2022/05/16 12:47:01;;;;;;;9.82;6.35;;;;;;;;;;5039202;28;20464;-71
2022/05/16 12:49:53;;;;;;;9.35;6.43;;;;;;;;;;5047409;28;20203;-70
2022/05/16 12:52:53;;;;;;;8.90;5.70;;;;;;;;;;5048648;28;20472;-70
2022/05/16 12:55:49;;;;;;;10.52;6.03;;;;;;;;;;5040350;28;20041;-70
2022/05/16 12:58:48;;;;;;;6.45;5.90;;;;;;;;;;5045480;28;20049;-70
2022/05/16 13:01:24;;;;;;;6.93;5.30;;;;;;;;;;5026104;28;20045;-70
2022/05/16 13:03:58;;;;;;;8.18;5.30;;;;;;;;;;5012307;28;20071;-70
2022/05/16 13:07:01;;;;;;;8.13;5.20;;;;;;;;;;5022650;28;20605;-70
2022/05/16 13:09:42;;;;;;;7.53;5.68;;;;;;;;;;5025798;28;20056;-69
2022/05/16 13:12:44;;;;;;;5.65;5.07;;;;;;;;;;5018776;28;20117;-70
2022/05/16 13:15:45;;;;;;;6.00;5.13;;;;;;;;;;4985812;28;20050;-70
2022/05/16 13:18:23;;;;;;;6.78;5.40;;;;;;;;;;4980848;28;20096;-69
2022/05/16 13:20:51;;;;;;;6.25;5.35;;;;;;;;;;4984788;28;20132;-70
2022/05/16 13:23:19;;;;;;;6.43;4.93;;;;;;;;;;4987353;28;20038;-70
2022/05/16 13:31:33;;;;;;;5.90;5.30;;;;;;;;;;4984513;28;20089;-70
2022/05/16 13:34:00;;;;;;;5.15;4.70;;;;;;;;;;4984724;28;20505;-69
2022/05/16 13:36:27;;;;;;;5.65;4.90;;;;;;;;;;4985742;28;20049;-70
2022/05/16 13:38:58;;;;;;;5.65;5.05;;;;;;;;;;5003836;28;20042;-70
2022/05/16 13:41:27;;;;;;;5.32;4.53;;;;;;;;;;5005037;28;20038;-69
2022/05/16 13:43:53;;;;;;;6.30;5.00;;;;;;;;;;5005277;28;20044;-70
2022/05/16 13:46:20;;;;;;;7.10;4.90;;;;;;;;;;5005370;28;20046;-70
2022/05/16 13:48:58;;;;;;;7.25;5.20;;;;;;;;;;5004136;28;20037;-70
2022/05/16 13:51:24;;;;;;;7.78;5.25;;;;;;;;;;5021931;28;20053;-70
2022/05/16 13:53:51;;;;;;;6.90;4.72;;;;;;;;;;5049814;28;20043;-70
2022/05/16 13:56:38;;;;;;;6.40;4.93;;;;;;;;;;5050454;28;20041;-70
2022/05/16 13:59:04;;;;;;;8.07;5.05;;;;;;;;;;5046856;28;20029;-70
2022/05/16 14:01:29;;;;;;;6.18;5.18;;;;;;;;;;5045013;28;20554;-70
2022/05/16 14:04:09;;;;;;;5.40;4.90;;;;;;;;;;5046916;28;20484;-70
2022/05/16 14:06:40;;;;;;;9.50;5.22;;;;;;;;;;5043572;28;20033;-70
2022/05/16 14:09:20;;;;;;;12.65;5.72;;;;;;;;;;5047240;28;20523;-70
2022/05/16 14:11:48;;;;;;;6.10;5.60;;;;;;;;;;5046152;28;20036;-70
2022/05/16 14:14:19;;;;;;;5.82;5.32;;;;;;;;;;5045216;28;20476;-70
2022/05/16 14:16:50;;;;;;;6.20;5.45;;;;;;;;;;5041332;28;20037;-70
2022/05/16 14:19:31;;;;;;;8.10;5.68;;;;;;;;;;5048511;28;20041;-71
2022/05/16 14:22:25;;;;;;;8.90;6.10;;;;;;;;;;5041806;28;20272;-71
2022/05/16 14:24:59;;;;;;;6.85;6.03;;;;;;;;;;5046615;28;20550;-70
2022/05/16 14:28:01;;;;;;;9.68;6.25;;;;;;;;;;5050322;28;20102;-70
2022/05/16 14:30:30;;;;;;;8.75;6.13;;;;;;;;;;5047937;28;20424;-70
2022/05/16 14:33:01;;;;;;;;;;;;;;;;;;5045947;28;20029;-71
2022/05/16 14:35:28;;;;;;;6.90;5.97;;;;;;;;;;5043957;28;20447;-71
2022/05/16 14:38:00;;;;;;;9.00;5.93;;;;;;;;;;5048937;28;20037;-70
2022/05/16 14:40:35;;;;;;;6.90;6.10;;;;;;;;;;5037167;28;20054;-69
2022/05/16 14:43:37;;;;;;;7.30;6.13;;;;;;;;;;5048719;28;20090;-71
2022/05/16 14:48:59;;;;;;;6.45;5.88;;;;;;;;;;5019089;28;20072;-70
2022/05/16 14:51:27;;;;;;;11.35;6.00;;;;;;;;;;5015008;28;20037;-70
2022/05/16 14:53:54;;;;;;;10.93;5.90;;;;;;;;;;5026192;28;20033;-70
2022/05/16 14:56:21;;;;;;;8.55;5.20;;;;;;;;;;5028194;28;20049;-70
2022/05/16 14:58:50;;;;;;;11.60;6.28;;;;;;;;;;5014199;28;20041;-70
2022/05/16 15:04:03;;;;;;;7.32;5.57;;;;;;;;;;5024114;28;20037;-70
2022/05/16 15:06:33;;;;;;;6.85;5.88;;;;;;;;;;5028864;28;20065;-70
2022/05/16 15:09:00;;;;;;;5.85;5.32;;;;;;;;;;5025764;28;20048;-70
2022/05/16 15:11:29;;;;;;;7.05;5.57;;;;;;;;;;5026001;28;20128;-70
2022/05/16 15:13:55;;;;;;;7.15;5.80;;;;;;;;;;5022435;28;20048;-70
2022/05/16 15:16:22;;;;;;;8.20;5.60;;;;;;;;;;5022137;28;20038;-69
2022/05/16 15:18:48;;;;;;;7.72;5.80;;;;;;;;;;5020366;28;20124;-69
2022/05/16 15:21:16;;;;;;;6.10;5.60;;;;;;;;;;5033076;28;20357;-69
2022/05/16 15:23:43;;;;;;;8.30;5.60;;;;;;;;;;5046375;28;20033;-69
2022/05/16 15:26:09;;;;;;;6.75;6.07;;;;;;;;;;5050549;28;20483;-69
2022/05/16 15:28:35;;;;;;;6.43;5.60;;;;;;;;;;5047928;28;20048;-71
2022/05/16 15:31:02;;;;;;;6.45;5.70;;;;;;;;;;5046213;28;20032;-71
2022/05/16 15:33:28;;;;;;;7.55;5.38;;;;;;;;;;5058969;28;20029;-70
2022/05/16 15:35:54;;;;;;;8.50;5.80;;;;;;;;;;5047766;28;20040;-70
2022/05/16 15:38:22;;;;;;;6.43;5.82;;;;;;;;;;5041473;28;20547;-69
2022/05/16 15:40:48;;;;;;;7.82;5.72;;;;;;;;;;5035719;28;20037;-69
2022/05/16 15:43:16;;;;;;;5.93;5.30;;;;;;;;;;5039925;28;20488;-69
2022/05/16 15:45:44;;;;;;;7.57;6.03;;;;;;;;;;5047775;28;20419;-69
2022/05/16 15:48:12;;;;;;;6.97;6.38;;;;;;;;;;5063928;22;20040;-65
2022/05/16 15:50:39;;;;;;;7.45;5.70;;;;;;;;;;5039321;28;20037;-65